sensor_id;sensor_type;location;lat;lon;timestamp;temperature;humidity
1760;DHT22;877;46.266;20.062;2023-09-19T00:01:42;22.40;58.50
1760;DHT22;877;46.266;20.062;2023-09-19T00:04:12;22.40;58.40
1760;DHT22;877;46.266;20.062;2023-09-19T00:06:38;22.40;58.40
1760;DHT22;877;46.266;20.062;2023-09-19T00:09:05;22.40;58.50
1760;DHT22;877;46.266;20.062;2023-09-19T00:11:36;22.50;58.40
1760;DHT22;877;46.266;20.062;2023-09-19T00:14:02;22.40;58.40
1760;DHT22;877;46.266;20.062;2023-09-19T00:16:28;22.40;58.30
1760;DHT22;877;46.266;20.062;2023-09-19T00:18:54;22.40;58.40
1760;DHT22;877;46.266;20.062;2023-09-19T00:21:20;22.40;58.40
1760;DHT22;877;46.266;20.062;2023-09-19T00:23:48;22.40;58.40
1760;DHT22;877;46.266;20.062;2023-09-19T00:26:14;22.40;58.40
1760;DHT22;877;46.266;20.062;2023-09-19T00:28:40;22.40;58.40
1760;DHT22;877;46.266;20.062;2023-09-19T00:31:08;22.30;58.50
1760;DHT22;877;46.266;20.062;2023-09-19T00:33:34;22.30;58.60
1760;DHT22;877;46.266;20.062;2023-09-19T00:36:01;22.30;58.60
1760;DHT22;877;46.266;20.062;2023-09-19T00:38:30;22.30;58.80
1760;DHT22;877;46.266;20.062;2023-09-19T00:40:57;22.30;58.70
1760;DHT22;877;46.266;20.062;2023-09-19T00:43:25;22.30;58.80
1760;DHT22;877;46.266;20.062;2023-09-19T00:45:54;22.30;58.80
1760;DHT22;877;46.266;20.062;2023-09-19T00:48:22;22.20;58.80
1760;DHT22;877;46.266;20.062;2023-09-19T00:50:49;22.30;58.80
1760;DHT22;877;46.266;20.062;2023-09-19T00:53:19;22.20;58.80
1760;DHT22;877;46.266;20.062;2023-09-19T00:55:48;22.20;58.80
1760;DHT22;877;46.266;20.062;2023-09-19T00:58:17;22.20;58.80
1760;DHT22;877;46.266;20.062;2023-09-19T01:00:43;22.20;58.50
1760;DHT22;877;46.266;20.062;2023-09-19T01:03:12;22.20;58.50
1760;DHT22;877;46.266;20.062;2023-09-19T01:05:39;22.20;58.50
1760;DHT22;877;46.266;20.062;2023-09-19T01:08:05;22.20;58.30
1760;DHT22;877;46.266;20.062;2023-09-19T01:10:33;22.20;58.40
1760;DHT22;877;46.266;20.062;2023-09-19T01:29:45;22.20;58.70
1760;DHT22;877;46.266;20.062;2023-09-19T01:32:17;22.10;58.70
1760;DHT22;877;46.266;20.062;2023-09-19T01:34:53;22.10;58.80
1760;DHT22;877;46.266;20.062;2023-09-19T01:37:20;22.10;58.80
1760;DHT22;877;46.266;20.062;2023-09-19T01:40:12;22.10;58.80
1760;DHT22;877;46.266;20.062;2023-09-19T01:42:49;22.10;58.60
1760;DHT22;877;46.266;20.062;2023-09-19T01:50:59;22.10;58.70
1760;DHT22;877;46.266;20.062;2023-09-19T01:53:28;22.10;58.70
1760;DHT22;877;46.266;20.062;2023-09-19T01:55:57;22.10;58.70
1760;DHT22;877;46.266;20.062;2023-09-19T01:58:31;22.10;58.70
1760;DHT22;877;46.266;20.062;2023-09-19T02:01:00;22.10;58.80
1760;DHT22;877;46.266;20.062;2023-09-19T02:03:27;22.10;58.90
1760;DHT22;877;46.266;20.062;2023-09-19T02:05:54;22.10;59.10
1760;DHT22;877;46.266;20.062;2023-09-19T02:08:21;22.10;59.10
1760;DHT22;877;46.266;20.062;2023-09-19T02:10:51;22.10;59.10
1760;DHT22;877;46.266;20.062;2023-09-19T02:13:19;22.00;59.20
1760;DHT22;877;46.266;20.062;2023-09-19T02:15:46;22.00;59.20
1760;DHT22;877;46.266;20.062;2023-09-19T02:21:34;22.00;59.60
1760;DHT22;877;46.266;20.062;2023-09-19T02:24:01;21.90;60.10
1760;DHT22;877;46.266;20.062;2023-09-19T02:26:30;22.00;59.90
1760;DHT22;877;46.266;20.062;2023-09-19T02:28:56;21.90;60.40
1760;DHT22;877;46.266;20.062;2023-09-19T02:31:22;21.80;61.60
1760;DHT22;877;46.266;20.062;2023-09-19T02:33:49;21.70;62.70
1760;DHT22;877;46.266;20.062;2023-09-19T02:36:14;21.70;63.90
1760;DHT22;877;46.266;20.062;2023-09-19T02:38:44;21.00;66.40
1760;DHT22;877;46.266;20.062;2023-09-19T02:41:11;20.80;66.60
1760;DHT22;877;46.266;20.062;2023-09-19T02:43:39;21.20;65.30
1760;DHT22;877;46.266;20.062;2023-09-19T02:46:11;21.40;64.40
1760;DHT22;877;46.266;20.062;2023-09-19T02:48:37;21.40;64.50
1760;DHT22;877;46.266;20.062;2023-09-19T02:51:05;21.50;64.00
1760;DHT22;877;46.266;20.062;2023-09-19T02:53:31;21.50;63.50
1760;DHT22;877;46.266;20.062;2023-09-19T02:55:57;21.50;63.70
1760;DHT22;877;46.266;20.062;2023-09-19T02:58:25;21.50;63.40
1760;DHT22;877;46.266;20.062;2023-09-19T03:00:53;21.50;63.20
1760;DHT22;877;46.266;20.062;2023-09-19T03:03:21;21.60;63.10
1760;DHT22;877;46.266;20.062;2023-09-19T03:05:48;21.60;62.80
1760;DHT22;877;46.266;20.062;2023-09-19T03:08:14;21.60;62.80
1760;DHT22;877;46.266;20.062;2023-09-19T03:10:46;21.60;62.50
1760;DHT22;877;46.266;20.062;2023-09-19T03:13:14;21.60;62.50
1760;DHT22;877;46.266;20.062;2023-09-19T03:15:44;21.60;62.90
1760;DHT22;877;46.266;20.062;2023-09-19T03:18:12;21.60;62.80
1760;DHT22;877;46.266;20.062;2023-09-19T03:20:41;21.60;62.70
1760;DHT22;877;46.266;20.062;2023-09-19T03:23:06;21.70;62.90
1760;DHT22;877;46.266;20.062;2023-09-19T03:25:34;21.60;62.80
1760;DHT22;877;46.266;20.062;2023-09-19T03:28:03;21.60;62.90
1760;DHT22;877;46.266;20.062;2023-09-19T03:30:31;21.50;63.20
1760;DHT22;877;46.266;20.062;2023-09-19T03:33:01;21.60;63.40
1760;DHT22;877;46.266;20.062;2023-09-19T03:35:28;21.50;63.40
1760;DHT22;877;46.266;20.062;2023-09-19T03:37:57;21.60;63.40
1760;DHT22;877;46.266;20.062;2023-09-19T03:40:24;21.60;62.90
1760;DHT22;877;46.266;20.062;2023-09-19T03:42:50;21.60;62.60
1760;DHT22;877;46.266;20.062;2023-09-19T03:45:16;21.70;62.30
1760;DHT22;877;46.266;20.062;2023-09-19T03:47:43;21.70;62.20
1760;DHT22;877;46.266;20.062;2023-09-19T03:50:10;21.70;62.30
1760;DHT22;877;46.266;20.062;2023-09-19T03:52:36;21.70;63.00
1760;DHT22;877;46.266;20.062;2023-09-19T03:55:02;21.50;63.10
1760;DHT22;877;46.266;20.062;2023-09-19T03:57:30;21.60;63.20
1760;DHT22;877;46.266;20.062;2023-09-19T03:59:55;21.60;62.40
1760;DHT22;877;46.266;20.062;2023-09-19T04:02:22;21.70;62.10
1760;DHT22;877;46.266;20.062;2023-09-19T04:04:48;21.60;63.40
1760;DHT22;877;46.266;20.062;2023-09-19T04:07:16;21.20;65.80
1760;DHT22;877;46.266;20.062;2023-09-19T04:09:42;21.20;65.70
1760;DHT22;877;46.266;20.062;2023-09-19T04:12:08;21.30;65.20
1760;DHT22;877;46.266;20.062;2023-09-19T04:14:38;21.40;65.00
1760;DHT22;877;46.266;20.062;2023-09-19T04:17:04;21.30;65.30
1760;DHT22;877;46.266;20.062;2023-09-19T04:19:32;21.30;65.80
1760;DHT22;877;46.266;20.062;2023-09-19T04:21:58;21.30;66.10
1760;DHT22;877;46.266;20.062;2023-09-19T04:24:30;21.20;66.80
1760;DHT22;877;46.266;20.062;2023-09-19T04:26:58;21.10;67.70
1760;DHT22;877;46.266;20.062;2023-09-19T04:29:25;21.10;69.00
1760;DHT22;877;46.266;20.062;2023-09-19T04:31:55;21.00;70.10
1760;DHT22;877;46.266;20.062;2023-09-19T04:34:22;21.00;71.00
1760;DHT22;877;46.266;20.062;2023-09-19T04:36:50;20.90;71.80
1760;DHT22;877;46.266;20.062;2023-09-19T04:39:16;20.80;72.80
1760;DHT22;877;46.266;20.062;2023-09-19T04:41:43;20.70;73.40
1760;DHT22;877;46.266;20.062;2023-09-19T04:44:11;20.70;73.90
1760;DHT22;877;46.266;20.062;2023-09-19T04:46:39;20.60;74.80
1760;DHT22;877;46.266;20.062;2023-09-19T04:49:05;20.60;75.70
1760;DHT22;877;46.266;20.062;2023-09-19T04:51:31;20.50;76.30
1760;DHT22;877;46.266;20.062;2023-09-19T04:54:00;20.60;76.60
1760;DHT22;877;46.266;20.062;2023-09-19T04:56:26;20.40;77.80
1760;DHT22;877;46.266;20.062;2023-09-19T04:58:55;20.30;78.80
1760;DHT22;877;46.266;20.062;2023-09-19T05:01:21;20.20;79.50
1760;DHT22;877;46.266;20.062;2023-09-19T05:03:49;20.30;80.10
1760;DHT22;877;46.266;20.062;2023-09-19T05:06:19;20.30;80.20
1760;DHT22;877;46.266;20.062;2023-09-19T05:08:49;20.20;81.30
1760;DHT22;877;46.266;20.062;2023-09-19T05:11:18;20.10;82.30
1760;DHT22;877;46.266;20.062;2023-09-19T05:13:45;20.00;82.80
1760;DHT22;877;46.266;20.062;2023-09-19T05:16:11;20.10;82.90
1760;DHT22;877;46.266;20.062;2023-09-19T05:18:39;20.00;83.80
1760;DHT22;877;46.266;20.062;2023-09-19T05:21:06;20.00;84.10
1760;DHT22;877;46.266;20.062;2023-09-19T05:23:33;20.00;84.30
1760;DHT22;877;46.266;20.062;2023-09-19T05:25:59;19.90;84.70
1760;DHT22;877;46.266;20.062;2023-09-19T05:28:26;19.90;84.60
1760;DHT22;877;46.266;20.062;2023-09-19T05:30:52;20.00;84.10
1760;DHT22;877;46.266;20.062;2023-09-19T05:33:19;20.10;83.10
1760;DHT22;877;46.266;20.062;2023-09-19T05:35:48;20.20;82.70
1760;DHT22;877;46.266;20.062;2023-09-19T05:38:14;20.30;80.60
1760;DHT22;877;46.266;20.062;2023-09-19T05:40:45;20.40;79.00
1760;DHT22;877;46.266;20.062;2023-09-19T05:43:11;20.30;77.40
1760;DHT22;877;46.266;20.062;2023-09-19T05:45:37;20.40;77.10
1760;DHT22;877;46.266;20.062;2023-09-19T05:48:10;20.40;76.50
1760;DHT22;877;46.266;20.062;2023-09-19T05:50:48;20.30;76.40
1760;DHT22;877;46.266;20.062;2023-09-19T05:53:14;20.20;76.60
1760;DHT22;877;46.266;20.062;2023-09-19T05:55:41;20.10;76.50
1760;DHT22;877;46.266;20.062;2023-09-19T05:58:09;20.20;76.60
1760;DHT22;877;46.266;20.062;2023-09-19T06:00:36;20.20;76.40
1760;DHT22;877;46.266;20.062;2023-09-19T06:03:02;20.30;75.80
1760;DHT22;877;46.266;20.062;2023-09-19T06:05:28;20.30;75.70
1760;DHT22;877;46.266;20.062;2023-09-19T06:07:58;20.30;75.60
1760;DHT22;877;46.266;20.062;2023-09-19T06:10:26;20.20;75.20
1760;DHT22;877;46.266;20.062;2023-09-19T06:12:54;20.20;75.20
1760;DHT22;877;46.266;20.062;2023-09-19T06:15:20;20.30;75.00
1760;DHT22;877;46.266;20.062;2023-09-19T06:17:55;20.30;74.80
1760;DHT22;877;46.266;20.062;2023-09-19T06:20:23;20.40;74.00
1760;DHT22;877;46.266;20.062;2023-09-19T06:22:54;20.40;73.50
1760;DHT22;877;46.266;20.062;2023-09-19T06:25:21;20.60;72.80
1760;DHT22;877;46.266;20.062;2023-09-19T06:27:55;20.80;72.50
1760;DHT22;877;46.266;20.062;2023-09-19T06:30:25;21.10;71.30
1760;DHT22;877;46.266;20.062;2023-09-19T06:32:58;21.30;70.50
1760;DHT22;877;46.266;20.062;2023-09-19T06:35:37;21.50;69.30
1760;DHT22;877;46.266;20.062;2023-09-19T06:38:24;21.70;68.20
1760;DHT22;877;46.266;20.062;2023-09-19T06:40:50;22.10;67.10
1760;DHT22;877;46.266;20.062;2023-09-19T06:43:16;22.30;65.60
1760;DHT22;877;46.266;20.062;2023-09-19T06:45:42;22.50;65.10
1760;DHT22;877;46.266;20.062;2023-09-19T06:48:08;22.70;64.70
1760;DHT22;877;46.266;20.062;2023-09-19T06:50:35;22.20;64.90
1760;DHT22;877;46.266;20.062;2023-09-19T06:53:01;22.10;66.00
1760;DHT22;877;46.266;20.062;2023-09-19T06:55:28;22.20;65.40
1760;DHT22;877;46.266;20.062;2023-09-19T06:57:56;22.30;65.20
1760;DHT22;877;46.266;20.062;2023-09-19T07:00:23;22.40;64.70
1760;DHT22;877;46.266;20.062;2023-09-19T07:03:05;22.40;64.60
1760;DHT22;877;46.266;20.062;2023-09-19T07:05:34;22.60;63.80
1760;DHT22;877;46.266;20.062;2023-09-19T07:08:07;22.80;63.70
1760;DHT22;877;46.266;20.062;2023-09-19T07:10:34;23.10;62.50
1760;DHT22;877;46.266;20.062;2023-09-19T07:13:01;23.00;62.90
1760;DHT22;877;46.266;20.062;2023-09-19T07:15:29;23.00;63.00
1760;DHT22;877;46.266;20.062;2023-09-19T07:17:56;22.90;63.30
1760;DHT22;877;46.266;20.062;2023-09-19T07:20:24;23.00;63.30
1760;DHT22;877;46.266;20.062;2023-09-19T07:22:57;23.10;62.90
1760;DHT22;877;46.266;20.062;2023-09-19T07:25:26;23.00;63.50
1760;DHT22;877;46.266;20.062;2023-09-19T07:27:55;22.90;63.40
1760;DHT22;877;46.266;20.062;2023-09-19T07:30:22;23.00;63.40
1760;DHT22;877;46.266;20.062;2023-09-19T07:32:48;23.20;63.50
1760;DHT22;877;46.266;20.062;2023-09-19T07:35:14;23.30;62.80
1760;DHT22;877;46.266;20.062;2023-09-19T07:37:40;23.30;62.50
1760;DHT22;877;46.266;20.062;2023-09-19T07:40:07;23.30;62.80
1760;DHT22;877;46.266;20.062;2023-09-19T07:42:36;23.30;62.40
1760;DHT22;877;46.266;20.062;2023-09-19T07:45:10;23.50;62.70
1760;DHT22;877;46.266;20.062;2023-09-19T07:47:47;23.40;62.60
1760;DHT22;877;46.266;20.062;2023-09-19T07:50:14;23.50;62.30
1760;DHT22;877;46.266;20.062;2023-09-19T07:52:41;23.60;62.30
1760;DHT22;877;46.266;20.062;2023-09-19T07:55:08;23.70;61.90
1760;DHT22;877;46.266;20.062;2023-09-19T07:57:35;24.00;61.30
1760;DHT22;877;46.266;20.062;2023-09-19T08:00:02;24.60;60.10
1760;DHT22;877;46.266;20.062;2023-09-19T08:02:35;24.80;59.10
1760;DHT22;877;46.266;20.062;2023-09-19T08:05:01;24.50;59.70
1760;DHT22;877;46.266;20.062;2023-09-19T08:07:33;24.60;59.60
1760;DHT22;877;46.266;20.062;2023-09-19T08:09:58;24.80;58.70
1760;DHT22;877;46.266;20.062;2023-09-19T08:12:25;24.90;57.90
1760;DHT22;877;46.266;20.062;2023-09-19T08:14:51;24.70;59.30
1760;DHT22;877;46.266;20.062;2023-09-19T08:17:17;24.50;59.80
1760;DHT22;877;46.266;20.062;2023-09-19T08:19:45;24.40;60.30
1760;DHT22;877;46.266;20.062;2023-09-19T08:22:12;24.40;60.40
1760;DHT22;877;46.266;20.062;2023-09-19T08:24:37;24.40;59.90
1760;DHT22;877;46.266;20.062;2023-09-19T08:27:04;24.40;60.70
1760;DHT22;877;46.266;20.062;2023-09-19T08:29:32;24.50;60.40
1760;DHT22;877;46.266;20.062;2023-09-19T08:31:58;24.70;59.90
1760;DHT22;877;46.266;20.062;2023-09-19T08:34:25;24.90;59.90
1760;DHT22;877;46.266;20.062;2023-09-19T08:36:54;24.90;59.10
1760;DHT22;877;46.266;20.062;2023-09-19T08:39:24;24.70;59.50
1760;DHT22;877;46.266;20.062;2023-09-19T08:41:56;24.90;59.70
1760;DHT22;877;46.266;20.062;2023-09-19T08:44:22;25.00;59.20
1760;DHT22;877;46.266;20.062;2023-09-19T08:46:55;25.10;59.00
1760;DHT22;877;46.266;20.062;2023-09-19T08:49:31;25.10;58.20
1760;DHT22;877;46.266;20.062;2023-09-19T08:52:08;25.00;58.90
1760;DHT22;877;46.266;20.062;2023-09-19T08:54:38;24.90;58.80
1760;DHT22;877;46.266;20.062;2023-09-19T08:57:08;25.30;58.20
1760;DHT22;877;46.266;20.062;2023-09-19T08:59:38;25.20;58.40
1760;DHT22;877;46.266;20.062;2023-09-19T09:02:12;24.50;62.60
1760;DHT22;877;46.266;20.062;2023-09-19T09:04:41;24.00;65.00
1760;DHT22;877;46.266;20.062;2023-09-19T09:07:14;24.10;64.80
1760;DHT22;877;46.266;20.062;2023-09-19T09:09:40;24.30;65.40
1760;DHT22;877;46.266;20.062;2023-09-19T09:12:13;24.40;65.30
1760;DHT22;877;46.266;20.062;2023-09-19T09:14:47;24.30;66.40
1760;DHT22;877;46.266;20.062;2023-09-19T09:17:18;24.40;67.50
1760;DHT22;877;46.266;20.062;2023-09-19T09:19:46;24.00;70.30
1760;DHT22;877;46.266;20.062;2023-09-19T09:22:12;23.00;74.50
1760;DHT22;877;46.266;20.062;2023-09-19T09:24:52;23.00;74.70
1760;DHT22;877;46.266;20.062;2023-09-19T09:27:20;22.90;75.30
1760;DHT22;877;46.266;20.062;2023-09-19T09:29:48;22.80;75.80
1760;DHT22;877;46.266;20.062;2023-09-19T09:32:30;22.70;75.50
1760;DHT22;877;46.266;20.062;2023-09-19T09:35:00;22.90;75.60
1760;DHT22;877;46.266;20.062;2023-09-19T09:37:27;23.10;74.30
1760;DHT22;877;46.266;20.062;2023-09-19T09:40:03;23.50;72.10
1760;DHT22;877;46.266;20.062;2023-09-19T09:42:59;23.60;71.20
1760;DHT22;877;46.266;20.062;2023-09-19T09:45:25;23.00;73.50
1760;DHT22;877;46.266;20.062;2023-09-19T09:48:03;23.20;73.70
1760;DHT22;877;46.266;20.062;2023-09-19T09:50:47;23.20;73.60
1760;DHT22;877;46.266;20.062;2023-09-19T09:56:09;23.20;72.60
1760;DHT22;877;46.266;20.062;2023-09-19T09:58:58;22.80;74.30
1760;DHT22;877;46.266;20.062;2023-09-19T10:01:25;23.20;70.40
1760;DHT22;877;46.266;20.062;2023-09-19T10:04:01;22.80;71.50
1760;DHT22;877;46.266;20.062;2023-09-19T10:06:40;22.10;74.00
1760;DHT22;877;46.266;20.062;2023-09-19T10:09:12;22.10;73.70
1760;DHT22;877;46.266;20.062;2023-09-19T10:12:06;22.40;73.90
1760;DHT22;877;46.266;20.062;2023-09-19T10:14:37;23.00;71.60
1760;DHT22;877;46.266;20.062;2023-09-19T10:17:05;22.90;71.00
1760;DHT22;877;46.266;20.062;2023-09-19T10:22:11;23.10;67.40
1760;DHT22;877;46.266;20.062;2023-09-19T10:24:38;23.10;68.40
1760;DHT22;877;46.266;20.062;2023-09-19T10:27:06;23.60;65.70
1760;DHT22;877;46.266;20.062;2023-09-19T10:29:34;24.30;64.30
1760;DHT22;877;46.266;20.062;2023-09-19T10:32:03;24.10;64.30
1760;DHT22;877;46.266;20.062;2023-09-19T10:34:36;23.20;65.80
1760;DHT22;877;46.266;20.062;2023-09-19T10:37:03;23.80;64.20
1760;DHT22;877;46.266;20.062;2023-09-19T10:39:32;24.20;63.40
1760;DHT22;877;46.266;20.062;2023-09-19T10:42:02;24.40;61.80
1760;DHT22;877;46.266;20.062;2023-09-19T10:44:32;23.70;64.50
1760;DHT22;877;46.266;20.062;2023-09-19T10:46:59;23.90;63.30
1760;DHT22;877;46.266;20.062;2023-09-19T10:49:25;24.20;60.90
1760;DHT22;877;46.266;20.062;2023-09-19T10:51:57;24.60;59.50
1760;DHT22;877;46.266;20.062;2023-09-19T10:54:31;24.80;58.30
1760;DHT22;877;46.266;20.062;2023-09-19T11:00:14;24.40;60.10
1760;DHT22;877;46.266;20.062;2023-09-19T11:03:25;24.50;58.80
1760;DHT22;877;46.266;20.062;2023-09-19T11:09:03;24.40;59.30
1760;DHT22;877;46.266;20.062;2023-09-19T11:11:45;24.10;59.60
1760;DHT22;877;46.266;20.062;2023-09-19T11:30:35;24.80;57.80
1760;DHT22;877;46.266;20.062;2023-09-19T11:33:19;24.50;57.20
1760;DHT22;877;46.266;20.062;2023-09-19T11:36:13;25.40;54.80
1760;DHT22;877;46.266;20.062;2023-09-19T11:46:52;26.00;53.30
1760;DHT22;877;46.266;20.062;2023-09-19T11:49:19;25.50;54.50
1760;DHT22;877;46.266;20.062;2023-09-19T11:51:52;25.60;53.90
1760;DHT22;877;46.266;20.062;2023-09-19T11:54:18;25.60;53.80
1760;DHT22;877;46.266;20.062;2023-09-19T11:56:45;26.30;53.30
1760;DHT22;877;46.266;20.062;2023-09-19T11:59:11;26.40;53.10
1760;DHT22;877;46.266;20.062;2023-09-19T12:01:51;27.00;51.30
1760;DHT22;877;46.266;20.062;2023-09-19T12:04:43;27.20;51.60
1760;DHT22;877;46.266;20.062;2023-09-19T12:07:15;26.40;53.20
1760;DHT22;877;46.266;20.062;2023-09-19T12:10:02;26.60;50.80
1760;DHT22;877;46.266;20.062;2023-09-19T12:12:28;25.10;54.80
1760;DHT22;877;46.266;20.062;2023-09-19T12:14:56;25.80;54.60
1760;DHT22;877;46.266;20.062;2023-09-19T12:17:39;26.80;52.40
1760;DHT22;877;46.266;20.062;2023-09-19T12:20:06;27.50;50.20
1760;DHT22;877;46.266;20.062;2023-09-19T12:22:45;26.80;50.70
1760;DHT22;877;46.266;20.062;2023-09-19T12:25:13;27.50;49.50
1760;DHT22;877;46.266;20.062;2023-09-19T12:27:47;27.70;48.90
1760;DHT22;877;46.266;20.062;2023-09-19T12:30:16;27.40;49.70
1760;DHT22;877;46.266;20.062;2023-09-19T12:32:48;26.90;49.90
1760;DHT22;877;46.266;20.062;2023-09-19T12:37:55;27.20;48.70
1760;DHT22;877;46.266;20.062;2023-09-19T12:40:23;27.40;49.30
1760;DHT22;877;46.266;20.062;2023-09-19T12:42:55;27.10;49.00
1760;DHT22;877;46.266;20.062;2023-09-19T12:45:21;27.00;50.40
1760;DHT22;877;46.266;20.062;2023-09-19T12:48:25;26.10;50.90
1760;DHT22;877;46.266;20.062;2023-09-19T12:51:03;26.90;50.10
1760;DHT22;877;46.266;20.062;2023-09-19T12:53:34;27.20;49.30
1760;DHT22;877;46.266;20.062;2023-09-19T12:56:05;26.50;49.40
1760;DHT22;877;46.266;20.062;2023-09-19T12:58:35;26.80;49.50
1760;DHT22;877;46.266;20.062;2023-09-19T13:01:16;27.30;47.70
1760;DHT22;877;46.266;20.062;2023-09-19T13:03:42;27.10;47.90
1760;DHT22;877;46.266;20.062;2023-09-19T13:06:08;28.00;47.30
1760;DHT22;877;46.266;20.062;2023-09-19T13:08:37;28.10;46.40
1760;DHT22;877;46.266;20.062;2023-09-19T13:11:20;27.80;47.70
1760;DHT22;877;46.266;20.062;2023-09-19T13:13:49;26.60;48.90
1760;DHT22;877;46.266;20.062;2023-09-19T13:16:21;27.40;48.60
1760;DHT22;877;46.266;20.062;2023-09-19T13:18:53;27.00;49.00
1760;DHT22;877;46.266;20.062;2023-09-19T13:21:33;27.30;46.80
1760;DHT22;877;46.266;20.062;2023-09-19T13:24:22;27.90;47.70
1760;DHT22;877;46.266;20.062;2023-09-19T13:26:51;29.00;44.20
1760;DHT22;877;46.266;20.062;2023-09-19T13:29:17;28.80;43.40
1760;DHT22;877;46.266;20.062;2023-09-19T13:31:48;28.90;43.30
1760;DHT22;877;46.266;20.062;2023-09-19T13:34:14;28.30;44.80
1760;DHT22;877;46.266;20.062;2023-09-19T13:36:42;28.30;43.80
1760;DHT22;877;46.266;20.062;2023-09-19T13:39:08;28.60;43.70
1760;DHT22;877;46.266;20.062;2023-09-19T13:41:38;28.50;44.60
1760;DHT22;877;46.266;20.062;2023-09-19T13:44:04;28.20;45.00
1760;DHT22;877;46.266;20.062;2023-09-19T13:46:30;28.10;45.00
1760;DHT22;877;46.266;20.062;2023-09-19T13:48:58;27.70;45.30
1760;DHT22;877;46.266;20.062;2023-09-19T13:51:28;27.90;45.40
1760;DHT22;877;46.266;20.062;2023-09-19T13:53:55;27.80;44.60
1760;DHT22;877;46.266;20.062;2023-09-19T13:56:21;28.50;44.70
1760;DHT22;877;46.266;20.062;2023-09-19T13:58:48;28.00;45.10
1760;DHT22;877;46.266;20.062;2023-09-19T14:01:13;28.50;44.20
1760;DHT22;877;46.266;20.062;2023-09-19T14:03:40;28.70;43.30
1760;DHT22;877;46.266;20.062;2023-09-19T14:06:06;29.20;42.20
1760;DHT22;877;46.266;20.062;2023-09-19T14:08:32;29.40;41.00
1760;DHT22;877;46.266;20.062;2023-09-19T14:11:05;28.90;41.80
1760;DHT22;877;46.266;20.062;2023-09-19T14:13:31;28.70;43.10
1760;DHT22;877;46.266;20.062;2023-09-19T14:15:57;27.70;44.80
1760;DHT22;877;46.266;20.062;2023-09-19T14:18:24;27.50;45.20
1760;DHT22;877;46.266;20.062;2023-09-19T14:20:50;27.10;45.50
1760;DHT22;877;46.266;20.062;2023-09-19T14:23:18;26.70;46.90
1760;DHT22;877;46.266;20.062;2023-09-19T14:25:44;26.70;47.20
1760;DHT22;877;46.266;20.062;2023-09-19T14:28:10;26.90;47.20
1760;DHT22;877;46.266;20.062;2023-09-19T14:30:36;27.00;47.00
1760;DHT22;877;46.266;20.062;2023-09-19T14:33:03;26.80;47.50
1760;DHT22;877;46.266;20.062;2023-09-19T14:35:29;27.00;47.50
1760;DHT22;877;46.266;20.062;2023-09-19T14:37:56;27.30;47.20
1760;DHT22;877;46.266;20.062;2023-09-19T14:40:22;26.70;48.10
1760;DHT22;877;46.266;20.062;2023-09-19T14:42:48;26.50;48.30
1760;DHT22;877;46.266;20.062;2023-09-19T14:45:21;26.60;48.80
1760;DHT22;877;46.266;20.062;2023-09-19T14:47:47;26.30;48.90
1760;DHT22;877;46.266;20.062;2023-09-19T14:50:13;26.30;48.70
1760;DHT22;877;46.266;20.062;2023-09-19T14:52:40;26.60;48.90
1760;DHT22;877;46.266;20.062;2023-09-19T14:55:07;26.50;48.60
1760;DHT22;877;46.266;20.062;2023-09-19T14:57:34;25.90;50.80
1760;DHT22;877;46.266;20.062;2023-09-19T15:00:00;26.00;50.90
1760;DHT22;877;46.266;20.062;2023-09-19T15:02:26;25.80;51.50
1760;DHT22;877;46.266;20.062;2023-09-19T15:04:52;25.70;52.10
1760;DHT22;877;46.266;20.062;2023-09-19T15:07:19;25.80;52.60
1760;DHT22;877;46.266;20.062;2023-09-19T15:09:49;26.20;50.30
1760;DHT22;877;46.266;20.062;2023-09-19T15:12:24;26.50;49.90
1760;DHT22;877;46.266;20.062;2023-09-19T15:14:50;25.80;50.90
1760;DHT22;877;46.266;20.062;2023-09-19T15:17:15;25.80;51.70
1760;DHT22;877;46.266;20.062;2023-09-19T15:19:41;26.50;49.90
1760;DHT22;877;46.266;20.062;2023-09-19T15:22:07;27.00;48.60
1760;DHT22;877;46.266;20.062;2023-09-19T15:24:33;27.00;48.40
1760;DHT22;877;46.266;20.062;2023-09-19T15:27:00;26.60;48.80
1760;DHT22;877;46.266;20.062;2023-09-19T15:29:42;26.60;48.60
1760;DHT22;877;46.266;20.062;2023-09-19T15:32:08;26.30;48.90
1760;DHT22;877;46.266;20.062;2023-09-19T15:34:35;26.20;49.10
1760;DHT22;877;46.266;20.062;2023-09-19T15:37:01;26.30;49.30
1760;DHT22;877;46.266;20.062;2023-09-19T15:39:30;26.50;48.80
1760;DHT22;877;46.266;20.062;2023-09-19T15:41:59;26.30;49.50
1760;DHT22;877;46.266;20.062;2023-09-19T15:44:25;26.00;50.20
1760;DHT22;877;46.266;20.062;2023-09-19T15:46:53;26.50;49.20
1760;DHT22;877;46.266;20.062;2023-09-19T15:49:19;26.50;49.60
1760;DHT22;877;46.266;20.062;2023-09-19T15:51:46;26.40;49.50
1760;DHT22;877;46.266;20.062;2023-09-19T15:54:15;26.10;50.20
1760;DHT22;877;46.266;20.062;2023-09-19T15:56:42;26.40;49.90
1760;DHT22;877;46.266;20.062;2023-09-19T15:59:08;25.90;51.30
1760;DHT22;877;46.266;20.062;2023-09-19T16:01:38;25.80;51.10
1760;DHT22;877;46.266;20.062;2023-09-19T16:04:06;25.70;51.80
1760;DHT22;877;46.266;20.062;2023-09-19T16:06:35;26.10;51.20
1760;DHT22;877;46.266;20.062;2023-09-19T16:09:02;26.20;50.60
1760;DHT22;877;46.266;20.062;2023-09-19T16:11:32;26.40;50.40
1760;DHT22;877;46.266;20.062;2023-09-19T16:13:58;26.50;50.30
1760;DHT22;877;46.266;20.062;2023-09-19T16:16:26;26.20;50.70
1760;DHT22;877;46.266;20.062;2023-09-19T16:19:00;26.40;50.40
1760;DHT22;877;46.266;20.062;2023-09-19T16:21:32;26.30;51.00
1760;DHT22;877;46.266;20.062;2023-09-19T16:23:59;26.30;51.10
1760;DHT22;877;46.266;20.062;2023-09-19T16:26:26;25.70;52.70
1760;DHT22;877;46.266;20.062;2023-09-19T16:28:54;25.40;53.50
1760;DHT22;877;46.266;20.062;2023-09-19T16:31:20;25.30;54.00
1760;DHT22;877;46.266;20.062;2023-09-19T16:33:47;25.30;54.30
1760;DHT22;877;46.266;20.062;2023-09-19T16:36:17;25.10;54.60
1760;DHT22;877;46.266;20.062;2023-09-19T16:38:45;24.90;55.30
1760;DHT22;877;46.266;20.062;2023-09-19T16:41:12;24.90;55.40
1760;DHT22;877;46.266;20.062;2023-09-19T16:43:39;24.70;55.90
1760;DHT22;877;46.266;20.062;2023-09-19T16:46:06;24.40;57.10
1760;DHT22;877;46.266;20.062;2023-09-19T16:48:37;24.30;57.30
1760;DHT22;877;46.266;20.062;2023-09-19T16:51:13;24.10;57.70
1760;DHT22;877;46.266;20.062;2023-09-19T16:53:40;24.20;57.60
1760;DHT22;877;46.266;20.062;2023-09-19T16:56:12;24.00;58.00
1760;DHT22;877;46.266;20.062;2023-09-19T16:58:41;23.90;58.40
1760;DHT22;877;46.266;20.062;2023-09-19T17:01:08;23.90;58.60
1760;DHT22;877;46.266;20.062;2023-09-19T17:03:45;23.80;58.70
1760;DHT22;877;46.266;20.062;2023-09-19T17:06:15;23.70;59.20
1760;DHT22;877;46.266;20.062;2023-09-19T17:08:43;23.80;59.10
1760;DHT22;877;46.266;20.062;2023-09-19T17:11:11;23.80;59.00
1760;DHT22;877;46.266;20.062;2023-09-19T17:13:41;23.60;59.30
1760;DHT22;877;46.266;20.062;2023-09-19T17:16:11;23.60;59.30
1760;DHT22;877;46.266;20.062;2023-09-19T17:18:38;23.60;59.10
1760;DHT22;877;46.266;20.062;2023-09-19T17:21:08;23.50;59.60